Time;durP1;ratioP1;P1;durP2;ratioP2;P2;SDS_P1;SDS_P2;PMS_P1;PMS_P2;Temp;Humidity;BMP_temperature;BMP_pressure;BME280_temperature;BME280_humidity;BME280_pressure;Samples;Min_cycle;Max_cycle;Signal;HPM_P1;HPM_P2
2022/01/09 00:00:27;;;;;;;9.57;8.55;;;4.90;99.90;;;;;;5096365;28;20044;-68
2022/01/09 00:02:53;;;;;;;9.57;7.80;;;4.90;99.90;;;;;;5096446;28;20101;-68
2022/01/09 00:05:19;;;;;;;10.32;8.82;;;4.90;99.90;;;;;;5096629;28;20158;-68
2022/01/09 00:07:46;;;;;;;10.15;8.55;;;4.90;99.90;;;;;;5096289;28;20399;-68
2022/01/09 00:10:12;;;;;;;8.80;7.90;;;4.90;99.90;;;;;;5096266;28;20483;-68
2022/01/09 00:12:37;;;;;;;8.90;7.88;;;4.90;99.90;;;;;;5095939;28;20044;-68
2022/01/09 00:15:04;;;;;;;9.45;8.50;;;4.90;99.90;;;;;;5096474;28;20068;-68
2022/01/09 00:17:30;;;;;;;8.15;7.32;;;4.90;99.90;;;;;;5095900;28;20384;-68
2022/01/09 00:19:55;;;;;;;9.23;7.80;;;5.00;99.90;;;;;;5094732;28;20047;-68
2022/01/09 00:22:32;;;;;;;9.02;7.90;;;5.00;99.90;;;;;;5096635;28;20407;-68
2022/01/09 00:24:57;;;;;;;8.43;7.53;;;4.90;99.90;;;;;;5095928;28;20522;-68
2022/01/09 00:27:23;;;;;;;10.18;8.35;;;5.00;99.90;;;;;;5095695;28;20036;-68
2022/01/09 00:29:48;;;;;;;9.30;8.35;;;5.00;99.90;;;;;;5096092;28;20093;-68
2022/01/09 00:32:14;;;;;;;8.70;7.80;;;5.00;99.90;;;;;;5095463;28;20613;-68
2022/01/09 00:34:40;;;;;;;9.02;8.07;;;4.90;99.90;;;;;;5096005;28;20039;-68
2022/01/09 00:37:05;;;;;;;9.65;7.93;;;4.90;99.90;;;;;;5095317;28;20092;-68
2022/01/09 00:39:31;;;;;;;11.85;9.50;;;4.90;99.90;;;;;;5096098;28;20491;-68
2022/01/09 00:41:56;;;;;;;9.10;7.97;;;4.80;99.90;;;;;;5094438;28;20114;-68
2022/01/09 00:44:22;;;;;;;10.43;8.45;;;4.80;99.90;;;;;;5096080;28;20040;-68
2022/01/09 00:46:47;;;;;;;9.13;8.23;;;4.80;99.90;;;;;;5094992;28;20048;-68
2022/01/09 00:49:13;;;;;;;8.77;7.82;;;4.80;99.90;;;;;;5095202;28;20079;-68
2022/01/09 00:51:39;;;;;;;9.73;8.63;;;4.80;99.90;;;;;;5095446;28;20054;-68
2022/01/09 00:54:04;;;;;;;10.10;9.05;;;4.80;99.90;;;;;;5095594;28;20028;-69
2022/01/09 00:56:30;;;;;;;10.77;8.48;;;4.80;99.90;;;;;;5095506;28;20044;-68
2022/01/09 00:58:55;;;;;;;11.45;9.27;;;4.90;99.90;;;;;;5095378;28;20453;-68
2022/01/09 01:01:21;;;;;;;9.68;8.68;;;4.80;99.90;;;;;;5095756;28;20036;-68
2022/01/09 01:03:46;;;;;;;9.68;8.68;;;4.80;99.90;;;;;;5095482;28;20507;-68
2022/01/09 01:06:13;;;;;;;9.07;8.18;;;4.80;99.90;;;;;;5095194;28;20396;-68
2022/01/09 01:08:39;;;;;;;10.18;9.07;;;4.90;99.90;;;;;;5095104;28;20488;-68
2022/01/09 01:11:04;;;;;;;10.50;9.48;;;4.90;99.90;;;;;;5095459;28;20089;-68
2022/01/09 01:13:30;;;;;;;10.32;9.32;;;4.90;99.90;;;;;;5093891;28;20083;-68
2022/01/09 01:15:57;;;;;;;11.15;9.70;;;4.90;99.90;;;;;;5094755;28;20043;-68
2022/01/09 01:18:23;;;;;;;9.57;8.63;;;4.90;99.90;;;;;;5094730;28;20547;-68
2022/01/09 01:20:48;;;;;;;11.35;9.52;;;4.90;99.90;;;;;;5093672;28;20170;-68
2022/01/09 01:23:14;;;;;;;10.02;8.43;;;4.90;99.90;;;;;;5093822;28;20040;-68
2022/01/09 01:25:40;;;;;;;8.50;7.70;;;5.00;99.90;;;;;;5094691;28;20040;-68
2022/01/09 01:28:06;;;;;;;9.68;8.68;;;5.00;99.90;;;;;;5095144;28;20040;-68
2022/01/09 01:30:32;;;;;;;11.13;9.25;;;4.90;99.90;;;;;;5094795;28;20039;-68
2022/01/09 01:32:57;;;;;;;10.68;8.80;;;5.00;99.90;;;;;;5094754;28;20063;-68
2022/01/09 01:35:23;;;;;;;9.35;8.30;;;5.00;99.90;;;;;;5095228;28;20487;-68
2022/01/09 01:37:48;;;;;;;10.32;9.27;;;5.00;99.90;;;;;;5094095;28;20086;-68
2022/01/09 01:40:16;;;;;;;10.40;9.30;;;4.90;99.90;;;;;;5093152;28;20072;-68
2022/01/09 01:42:43;;;;;;;11.20;10.00;;;5.00;99.90;;;;;;5094673;28;20028;-68
2022/01/09 01:45:10;;;;;;;10.40;9.30;;;5.00;99.90;;;;;;5093594;28;20094;-68
2022/01/09 01:47:36;;;;;;;11.52;10.18;;;5.00;99.90;;;;;;5075979;28;20042;-68
2022/01/09 01:50:04;;;;;;;11.13;9.20;;;4.90;99.90;;;;;;5094613;28;20040;-68
2022/01/09 01:52:36;;;;;;;11.70;10.50;;;4.90;99.90;;;;;;5094249;28;20043;-68
2022/01/09 01:55:04;;;;;;;12.57;10.50;;;4.90;99.90;;;;;;5093118;28;20043;-68
2022/01/09 01:57:31;;;;;;;10.90;9.80;;;4.90;99.90;;;;;;5092850;28;20052;-68
2022/01/09 01:59:56;;;;;;;12.70;10.25;;;4.90;99.90;;;;;;5094494;28;20044;-68
2022/01/09 02:02:25;;;;;;;13.63;11.95;;;5.00;99.90;;;;;;5094376;28;20100;-68
2022/01/09 02:04:51;;;;;;;11.30;10.00;;;4.90;99.90;;;;;;5094046;28;20040;-68
2022/01/09 02:07:16;;;;;;;10.95;9.85;;;4.90;99.90;;;;;;5093591;28;20043;-68
2022/01/09 02:09:43;;;;;;;12.90;11.25;;;4.90;99.90;;;;;;5094273;28;20040;-68
2022/01/09 02:12:09;;;;;;;13.07;11.60;;;5.00;99.90;;;;;;5094278;28;20035;-68
2022/01/09 02:14:36;;;;;;;15.52;12.43;;;4.90;99.90;;;;;;5092854;28;20499;-68
2022/01/09 02:17:02;;;;;;;12.93;11.52;;;4.90;99.90;;;;;;5093481;28;20046;-68
2022/01/09 02:19:28;;;;;;;14.90;12.50;;;4.90;99.90;;;;;;5092650;28;20080;-68
2022/01/09 02:21:55;;;;;;;20.48;15.43;;;4.90;99.90;;;;;;5092635;28;20079;-68
2022/01/09 02:24:23;;;;;;;15.73;12.82;;;4.90;99.90;;;;;;5092687;28;20480;-68
2022/01/09 02:26:49;;;;;;;16.67;14.70;;;4.90;99.90;;;;;;5093666;28;20069;-68
2022/01/09 02:29:16;;;;;;;14.23;12.73;;;4.90;99.90;;;;;;5093823;28;20101;-68
2022/01/09 02:31:42;;;;;;;22.02;15.90;;;4.90;99.90;;;;;;5093700;28;20075;-68
2022/01/09 02:34:08;;;;;;;15.75;13.65;;;4.80;99.90;;;;;;5093551;28;20070;-68
2022/01/09 02:36:34;;;;;;;14.98;12.60;;;4.90;99.90;;;;;;5092014;28;20043;-69
2022/01/09 02:39:00;;;;;;;17.02;14.73;;;4.90;99.90;;;;;;5092229;28;20423;-68
2022/01/09 02:41:26;;;;;;;17.00;14.35;;;5.00;99.90;;;;;;5094085;28;20040;-68
2022/01/09 02:43:51;;;;;;;17.75;15.15;;;4.90;99.90;;;;;;5093431;28;20036;-68
2022/01/09 02:46:34;;;;;;;19.27;15.25;;;4.90;99.90;;;;;;5093572;28;20047;-68
2022/01/09 02:49:04;;;;;;;19.73;15.57;;;4.90;99.90;;;;;;5094217;28;20093;-68
2022/01/09 02:51:30;;;;;;;18.23;15.20;;;4.90;99.90;;;;;;5093595;28;20070;-68
2022/01/09 02:54:12;;;;;;;25.40;18.08;;;4.80;99.90;;;;;;5093592;28;20472;-68
2022/01/09 02:56:38;;;;;;;20.23;16.35;;;4.80;99.90;;;;;;5095924;28;20043;-68
2022/01/09 02:59:03;;;;;;;24.92;16.98;;;4.80;99.90;;;;;;5098105;28;20032;-68
2022/01/09 03:01:29;;;;;;;23.60;17.35;;;4.80;99.90;;;;;;5097533;28;20125;-68
2022/01/09 03:03:54;;;;;;;26.00;17.75;;;4.80;99.90;;;;;;5097891;28;20090;-68
2022/01/09 03:06:20;;;;;;;23.88;16.50;;;4.80;99.90;;;;;;5097348;28;20032;-68
2022/01/09 03:08:46;;;;;;;24.23;17.38;;;4.80;99.90;;;;;;5097658;28;20120;-68
2022/01/09 03:11:11;;;;;;;20.92;14.13;;;4.80;99.90;;;;;;5098173;28;20043;-68
2022/01/09 03:13:37;;;;;;;16.88;11.90;;;4.90;99.90;;;;;;5097254;28;20047;-68
2022/01/09 03:16:03;;;;;;;13.50;9.25;;;5.00;99.90;;;;;;5097687;28;20123;-68
2022/01/09 03:18:28;;;;;;;15.57;9.27;;;5.10;99.90;;;;;;5097467;28;20048;-68
2022/01/09 03:20:54;;;;;;;12.57;8.23;;;5.20;99.90;;;;;;5097626;28;20043;-68
2022/01/09 03:23:19;;;;;;;14.52;7.53;;;5.20;99.90;;;;;;5095923;28;20044;-68
2022/01/09 03:25:45;;;;;;;14.35;8.10;;;5.20;99.90;;;;;;5096945;28;20500;-68
2022/01/09 03:28:10;;;;;;;14.40;7.20;;;5.30;99.90;;;;;;5097242;28;20077;-68
2022/01/09 03:30:36;;;;;;;10.48;6.40;;;5.30;99.90;;;;;;5096130;28;20044;-68
2022/01/09 03:33:02;;;;;;;13.23;6.38;;;5.40;99.90;;;;;;5095949;28;20080;-68
2022/01/09 03:35:28;;;;;;;16.30;5.75;;;5.40;99.90;;;;;;5097393;28;20115;-68
2022/01/09 03:37:54;;;;;;;15.15;5.30;;;5.50;99.90;;;;;;5095925;28;20508;-68
2022/01/09 03:40:23;;;;;;;11.82;4.75;;;5.60;99.90;;;;;;5097079;28;20101;-68
2022/01/09 03:42:51;;;;;;;16.70;5.57;;;5.60;99.90;;;;;;5096764;28;20044;-68
2022/01/09 03:45:17;;;;;;;13.30;5.00;;;5.60;99.90;;;;;;5097016;28;20051;-68
2022/01/09 03:47:43;;;;;;;17.90;7.55;;;5.60;99.90;;;;;;5096752;28;20046;-68
2022/01/09 03:50:11;;;;;;;12.90;4.10;;;5.60;99.90;;;;;;5096927;28;20040;-68
2022/01/09 03:52:38;;;;;;;16.63;4.72;;;5.70;99.90;;;;;;5097006;28;20442;-68
2022/01/09 03:55:06;;;;;;;20.73;5.00;;;5.80;99.90;;;;;;5097218;28;20050;-68
2022/01/09 03:57:32;;;;;;;14.68;3.90;;;5.80;99.90;;;;;;5096070;28;20040;-68
2022/01/09 03:59:58;;;;;;;14.10;4.05;;;5.80;99.90;;;;;;5096320;28;20086;-68
2022/01/09 04:02:23;;;;;;;17.25;4.65;;;5.70;99.90;;;;;;5096865;28;20032;-68
2022/01/09 04:04:49;;;;;;;11.20;3.53;;;5.80;99.90;;;;;;5096759;28;20044;-68
2022/01/09 04:07:16;;;;;;;16.70;3.13;;;5.70;99.90;;;;;;5095231;28;20040;-68
2022/01/09 04:09:44;;;;;;;11.88;3.13;;;5.70;99.90;;;;;;5095115;28;20055;-68
2022/01/09 04:12:18;;;;;;;20.75;3.95;;;5.70;99.90;;;;;;5096826;28;20062;-68
2022/01/09 04:14:46;;;;;;;17.50;3.67;;;5.70;99.90;;;;;;5096145;28;20434;-68
2022/01/09 04:17:20;;;;;;;15.77;3.65;;;5.80;99.90;;;;;;5094693;28;20467;-68
2022/01/09 04:19:46;;;;;;;22.30;3.65;;;5.80;99.90;;;;;;5095528;28;20040;-68
2022/01/09 04:22:12;;;;;;;15.52;3.40;;;5.80;99.90;;;;;;5095293;28;20514;-68
2022/01/09 04:24:37;;;;;;;21.20;3.85;;;5.80;99.90;;;;;;5095448;28;20051;-68
2022/01/09 04:27:03;;;;;;;19.48;3.55;;;5.70;99.90;;;;;;5094572;28;20036;-68
2022/01/09 04:29:29;;;;;;;23.35;5.32;;;5.80;99.90;;;;;;5094955;28;20051;-68
2022/01/09 04:31:55;;;;;;;16.95;4.65;;;5.80;99.90;;;;;;5096118;28;20032;-68
2022/01/09 04:34:20;;;;;;;27.25;5.80;;;5.80;99.90;;;;;;5096256;28;20035;-68
2022/01/09 04:36:46;;;;;;;28.30;6.72;;;5.70;99.90;;;;;;5095459;28;20105;-69
2022/01/09 04:39:11;;;;;;;33.30;5.55;;;5.80;99.90;;;;;;5094346;28;20040;-68
2022/01/09 04:41:37;;;;;;;38.65;7.82;;;5.70;99.90;;;;;;5094583;28;20119;-68
2022/01/09 04:44:03;;;;;;;53.75;7.50;;;5.80;99.90;;;;;;5094507;28;20044;-69
2022/01/09 04:46:39;;;;;;;55.63;9.23;;;6.00;99.90;;;;;;5094106;28;20036;-69
2022/01/09 04:49:04;;;;;;;43.22;7.35;;;6.10;99.90;;;;;;5095800;28;20048;-69
2022/01/09 04:51:30;;;;;;;48.53;8.27;;;6.10;99.90;;;;;;5095939;28;20044;-68
2022/01/09 04:53:55;;;;;;;45.03;8.40;;;6.20;99.90;;;;;;5096555;28;20040;-68
2022/01/09 04:56:21;;;;;;;53.55;8.70;;;6.30;99.90;;;;;;5094045;28;20040;-68
2022/01/09 04:58:46;;;;;;;35.65;6.75;;;6.20;99.90;;;;;;5095580;28;20097;-68
2022/01/09 05:01:12;;;;;;;44.58;7.68;;;6.20;99.90;;;;;;5095715;28;20101;-69
2022/01/09 05:03:38;;;;;;;39.42;7.60;;;6.30;99.90;;;;;;5095285;28;20553;-68
2022/01/09 05:06:03;;;;;;;44.80;6.95;;;6.30;99.90;;;;;;5094975;28;20039;-68
2022/01/09 05:08:29;;;;;;;44.65;8.35;;;6.30;99.90;;;;;;5095384;28;20036;-68
2022/01/09 05:10:55;;;;;;;41.40;6.97;;;6.30;99.90;;;;;;5095443;28;20036;-68
2022/01/09 05:13:20;;;;;;;40.28;6.85;;;6.30;99.90;;;;;;5094994;28;20483;-68
2022/01/09 05:15:47;;;;;;;31.90;6.50;;;6.40;99.90;;;;;;5094610;28;20040;-68
2022/01/09 05:18:14;;;;;;;48.50;7.47;;;6.40;99.90;;;;;;5094649;28;20050;-68
2022/01/09 05:20:44;;;;;;;34.15;6.82;;;6.40;99.90;;;;;;5095064;28;20070;-68
2022/01/09 05:23:10;;;;;;;31.95;6.22;;;6.40;99.90;;;;;;5093715;28;20468;-68
2022/01/09 05:25:36;;;;;;;32.53;6.28;;;6.30;99.90;;;;;;5094648;28;20077;-68
2022/01/09 05:28:02;;;;;;;33.42;6.43;;;6.30;99.90;;;;;;5094882;28;20487;-68
2022/01/09 05:30:28;;;;;;;45.97;6.82;;;6.40;99.90;;;;;;5094825;28;20074;-68
2022/01/09 05:32:53;;;;;;;28.25;6.60;;;6.30;99.90;;;;;;5093701;28;20048;-68
2022/01/09 05:35:19;;;;;;;35.35;6.55;;;6.40;99.90;;;;;;5093590;28;20508;-69
2022/01/09 05:37:44;;;;;;;30.98;6.90;;;6.40;99.90;;;;;;5094141;28;20032;-68
2022/01/09 05:40:11;;;;;;;30.30;6.60;;;6.40;99.90;;;;;;5094742;28;20400;-69
2022/01/09 05:42:37;;;;;;;33.55;5.90;;;6.40;99.90;;;;;;5095053;28;20063;-68
2022/01/09 05:45:04;;;;;;;31.50;6.50;;;6.30;99.90;;;;;;5095030;28;20090;-68
2022/01/09 05:47:30;;;;;;;35.05;6.38;;;6.30;99.90;;;;;;5094050;28;20072;-68
2022/01/09 05:49:56;;;;;;;40.60;5.80;;;6.30;99.90;;;;;;5094535;28;20071;-68
2022/01/09 05:52:21;;;;;;;38.85;7.07;;;6.30;99.90;;;;;;5094564;28;20043;-68
2022/01/09 05:54:48;;;;;;;37.85;6.47;;;6.30;99.90;;;;;;5093266;28;20096;-68
2022/01/09 05:57:14;;;;;;;37.17;6.70;;;6.30;99.90;;;;;;5094068;28;20047;-68
2022/01/09 05:59:39;;;;;;;31.52;6.18;;;6.30;99.90;;;;;;5094266;28;20040;-68
2022/01/09 06:02:05;;;;;;;29.40;5.75;;;6.20;99.90;;;;;;5094139;28;20033;-68
2022/01/09 06:04:31;;;;;;;32.55;5.55;;;6.30;99.90;;;;;;5094059;28;20082;-69
2022/01/09 06:06:57;;;;;;;35.95;5.70;;;6.20;99.90;;;;;;5094088;28;20043;-68
2022/01/09 06:09:23;;;;;;;31.42;6.07;;;6.20;99.90;;;;;;5094631;28;20036;-68
2022/01/09 06:11:48;;;;;;;37.15;5.90;;;6.10;99.90;;;;;;5094042;28;20036;-68
2022/01/09 06:14:14;;;;;;;31.80;5.10;;;6.10;99.90;;;;;;5094485;28;20043;-68
2022/01/09 06:16:39;;;;;;;35.05;5.88;;;6.20;99.90;;;;;;5093813;28;20453;-68
2022/01/09 06:19:05;;;;;;;23.27;5.07;;;6.10;99.90;;;;;;5094365;28;20073;-68
2022/01/09 06:21:31;;;;;;;31.42;6.60;;;6.10;99.90;;;;;;5094128;28;20048;-68
2022/01/09 06:23:56;;;;;;;37.15;6.78;;;6.10;99.90;;;;;;5093020;28;20048;-68
2022/01/09 06:26:22;;;;;;;43.50;7.97;;;6.10;99.90;;;;;;5093742;28;20044;-68
2022/01/09 06:28:48;;;;;;;29.08;6.72;;;6.10;99.90;;;;;;5093703;28;20079;-68
2022/01/09 06:31:14;;;;;;;30.08;5.03;;;6.10;99.90;;;;;;5092064;28;20108;-68
2022/01/09 06:33:39;;;;;;;25.95;4.30;;;6.10;99.90;;;;;;5094332;28;20085;-68
2022/01/09 06:36:05;;;;;;;29.38;4.57;;;6.10;99.90;;;;;;5093467;28;20499;-68
2022/01/09 06:38:30;;;;;;;25.10;4.55;;;6.00;99.90;;;;;;5093640;28;20040;-68
2022/01/09 06:40:56;;;;;;;29.40;5.28;;;6.00;99.90;;;;;;5093975;28;20058;-68
2022/01/09 06:43:22;;;;;;;38.03;6.05;;;5.90;99.90;;;;;;5092277;28;20044;-68
2022/01/09 06:45:47;;;;;;;41.42;7.72;;;5.90;99.90;;;;;;5092682;28;20052;-68
2022/01/09 06:48:13;;;;;;;30.40;4.57;;;6.00;99.90;;;;;;5093444;28;20038;-68
2022/01/09 06:50:39;;;;;;;21.85;4.10;;;6.10;99.90;;;;;;5094417;28;20036;-68
2022/01/09 06:53:04;;;;;;;23.02;4.85;;;6.00;99.90;;;;;;5092650;28;20472;-68
2022/01/09 06:55:30;;;;;;;25.23;3.85;;;5.90;99.90;;;;;;5092697;28;20365;-68
2022/01/09 06:57:56;;;;;;;20.98;4.95;;;6.00;99.90;;;;;;5093461;28;20036;-68
2022/01/09 07:00:22;;;;;;;21.00;4.00;;;6.00;99.90;;;;;;5094153;28;20047;-68
2022/01/09 07:02:48;;;;;;;23.60;4.00;;;5.90;99.90;;;;;;5093389;28;20430;-68
2022/01/09 07:05:15;;;;;;;17.48;3.85;;;6.00;99.90;;;;;;5093310;28;20044;-68
2022/01/09 07:07:40;;;;;;;31.65;4.40;;;5.90;99.90;;;;;;5092860;28;20483;-68
2022/01/09 07:10:07;;;;;;;24.95;5.30;;;5.90;99.90;;;;;;5093556;28;20119;-68
2022/01/09 07:12:33;;;;;;;24.42;4.65;;;6.00;99.90;;;;;;5092017;28;20119;-68
2022/01/09 07:14:59;;;;;;;15.75;3.53;;;5.90;99.90;;;;;;5093437;28;20081;-68
2022/01/09 07:17:24;;;;;;;18.90;4.40;;;5.90;99.90;;;;;;5092916;28;20040;-68
2022/01/09 07:19:50;;;;;;;20.30;3.50;;;6.00;99.90;;;;;;5091972;28;20460;-68
2022/01/09 07:22:16;;;;;;;18.48;4.32;;;5.90;99.90;;;;;;5093315;28;20175;-68
2022/01/09 07:24:41;;;;;;;21.55;3.85;;;6.00;99.90;;;;;;5092304;28;20047;-68
2022/01/09 07:27:07;;;;;;;17.77;4.10;;;6.00;99.90;;;;;;5091950;28;20044;-68
2022/01/09 07:29:33;;;;;;;13.63;3.47;;;6.00;99.90;;;;;;5093781;28;20028;-68
2022/01/09 07:31:58;;;;;;;21.85;3.83;;;6.00;99.90;;;;;;5092443;28;20040;-68
2022/01/09 07:34:24;;;;;;;18.75;3.45;;;6.10;99.90;;;;;;5091821;28;20083;-68
2022/01/09 07:36:49;;;;;;;29.27;5.38;;;6.00;99.90;;;;;;5091540;28;20406;-68
2022/01/09 07:39:15;;;;;;;28.85;4.35;;;6.00;99.90;;;;;;5093587;28;20040;-68
2022/01/09 07:41:42;;;;;;;19.23;3.45;;;6.00;99.90;;;;;;5094366;28;20416;-68
2022/01/09 07:44:08;;;;;;;20.55;3.88;;;6.00;99.90;;;;;;5095501;28;20438;-68
2022/01/09 07:46:34;;;;;;;19.85;4.78;;;6.00;99.90;;;;;;5096735;28;20040;-68
2022/01/09 07:49:00;;;;;;;24.58;4.82;;;5.90;99.90;;;;;;5095517;28;20097;-68
2022/01/09 07:51:25;;;;;;;23.80;5.93;;;6.00;99.90;;;;;;5096884;28;20036;-68
2022/01/09 07:53:51;;;;;;;26.05;3.55;;;5.90;99.90;;;;;;5096764;28;20035;-68
2022/01/09 07:56:16;;;;;;;19.58;4.05;;;5.90;99.90;;;;;;5096548;28;20043;-68
2022/01/09 07:58:42;;;;;;;23.20;4.65;;;6.00;99.90;;;;;;5096660;28;20082;-67
2022/01/09 08:01:07;;;;;;;24.02;4.78;;;6.00;99.90;;;;;;5096505;28;20043;-68
2022/01/09 08:03:34;;;;;;;22.83;3.80;;;5.90;99.90;;;;;;5096541;28;20032;-67
2022/01/09 08:06:00;;;;;;;18.50;3.85;;;5.80;99.90;;;;;;5096061;28;20408;-67
2022/01/09 08:08:25;;;;;;;18.25;3.75;;;5.90;99.90;;;;;;5096229;28;20036;-68
2022/01/09 08:10:52;;;;;;;22.10;4.10;;;5.80;99.90;;;;;;5096868;28;20083;-67
2022/01/09 08:13:18;;;;;;;21.38;4.57;;;5.80;99.90;;;;;;5095125;28;20051;-67
2022/01/09 08:15:43;;;;;;;19.63;3.35;;;5.80;99.90;;;;;;5096413;28;20040;-67
2022/01/09 08:18:09;;;;;;;23.42;3.08;;;5.90;99.90;;;;;;5096196;28;20040;-67
2022/01/09 08:20:34;;;;;;;15.93;2.90;;;5.80;99.90;;;;;;5094721;28;20044;-68
2022/01/09 08:23:00;;;;;;;14.05;2.72;;;5.90;99.90;;;;;;5096189;28;20054;-67
2022/01/09 08:25:26;;;;;;;25.50;5.30;;;5.80;99.90;;;;;;5096347;28;20036;-67
2022/01/09 08:27:51;;;;;;;21.58;3.42;;;5.80;99.90;;;;;;5095816;28;20384;-68
2022/01/09 08:30:20;;;;;;;12.98;2.83;;;5.80;99.90;;;;;;5095794;28;20044;-68
2022/01/09 08:32:47;;;;;;;15.60;2.80;;;5.80;99.90;;;;;;5096202;28;20036;-68
2022/01/09 08:35:13;;;;;;;18.88;3.42;;;5.80;99.90;;;;;;5096083;28;20154;-67
2022/01/09 08:37:42;;;;;;;13.77;3.33;;;5.80;99.90;;;;;;5095413;28;20040;-68
2022/01/09 08:40:13;;;;;;;28.58;4.10;;;5.80;99.90;;;;;;5094832;28;20059;-68
2022/01/09 08:42:40;;;;;;;12.13;2.47;;;5.80;99.90;;;;;;5094897;28;20058;-68
2022/01/09 08:45:06;;;;;;;15.10;2.95;;;5.70;99.90;;;;;;5095660;28;20105;-68
2022/01/09 08:47:35;;;;;;;16.52;3.38;;;5.70;99.90;;;;;;5095133;28;20061;-67
2022/01/09 08:50:02;;;;;;;19.33;3.28;;;5.70;99.90;;;;;;5094467;28;20048;-68
2022/01/09 08:52:27;;;;;;;16.33;2.92;;;5.80;99.90;;;;;;5095839;28;20082;-68
2022/01/09 08:54:53;;;;;;;14.02;3.00;;;5.80;99.90;;;;;;5095047;28;20072;-68
2022/01/09 08:57:19;;;;;;;16.30;2.42;;;5.80;99.90;;;;;;5093495;28;20447;-67
2022/01/09 08:59:44;;;;;;;15.60;3.45;;;5.80;99.90;;;;;;5096177;28;20040;-67
2022/01/09 09:02:10;;;;;;;15.80;3.17;;;5.80;99.90;;;;;;5094050;28;20082;-68
2022/01/09 09:04:37;;;;;;;16.63;3.00;;;5.70;99.90;;;;;;5095520;28;20035;-68
2022/01/09 09:07:02;;;;;;;12.73;2.70;;;5.80;99.90;;;;;;5093464;28;20070;-67
2022/01/09 09:09:28;;;;;;;14.60;2.97;;;5.80;99.90;;;;;;5095809;28;20130;-68
2022/01/09 09:11:54;;;;;;;8.93;2.53;;;5.70;99.90;;;;;;5116002;28;20043;-67
2022/01/09 09:14:20;;;;;;;10.75;2.13;;;5.70;99.90;;;;;;5115347;28;20035;-67
2022/01/09 09:16:46;;;;;;;22.38;3.95;;;5.70;99.90;;;;;;5113871;28;20544;-67
2022/01/09 09:19:12;;;;;;;13.55;2.40;;;5.80;99.90;;;;;;5114009;28;20067;-68
2022/01/09 09:21:37;;;;;;;14.93;3.65;;;5.80;99.90;;;;;;5115713;28;20048;-67
2022/01/09 09:24:03;;;;;;;18.25;2.85;;;5.80;99.90;;;;;;5112905;28;20213;-68
2022/01/09 09:26:29;;;;;;;15.48;2.72;;;5.80;99.90;;;;;;5104291;28;20051;-67
2022/01/09 09:28:54;;;;;;;14.35;3.03;;;5.90;99.90;;;;;;5105437;28;20050;-68
2022/01/09 09:31:20;;;;;;;12.55;2.67;;;5.80;99.90;;;;;;5107609;28;20105;-68
2022/01/09 09:33:46;;;;;;;24.65;4.05;;;5.80;99.90;;;;;;5114161;28;20122;-67
2022/01/09 09:36:12;;;;;;;16.13;3.83;;;5.80;99.90;;;;;;5114822;28;20347;-67
2022/01/09 09:38:38;;;;;;;22.30;4.68;;;5.80;99.90;;;;;;5113979;28;20441;-72
2022/01/09 09:41:03;;;;;;;10.52;2.63;;;5.90;99.90;;;;;;5111743;28;20066;-67
2022/01/09 09:43:29;;;;;;;14.07;3.10;;;5.90;99.90;;;;;;5114738;28;20040;-67
2022/01/09 09:45:55;;;;;;;15.27;2.65;;;5.90;99.90;;;;;;5114317;28;20043;-67
2022/01/09 09:48:21;;;;;;;13.13;2.67;;;6.00;99.90;;;;;;5114898;28;20032;-68
2022/01/09 09:50:47;;;;;;;11.55;2.42;;;6.00;99.90;;;;;;5114818;28;20500;-68
2022/01/09 09:53:13;;;;;;;12.35;2.63;;;6.00;99.90;;;;;;5114803;28;20040;-66
2022/01/09 09:55:40;;;;;;;13.43;2.80;;;6.00;99.90;;;;;;5114676;28;20036;-68
2022/01/09 09:58:06;;;;;;;13.30;2.90;;;6.00;99.90;;;;;;5113414;28;20044;-68
2022/01/09 10:00:33;;;;;;;9.18;2.65;;;6.00;99.90;;;;;;5114615;28;20427;-67
2022/01/09 10:03:01;;;;;;;17.20;3.92;;;6.00;99.90;;;;;;5114803;28;20043;-67
2022/01/09 10:05:32;;;;;;;14.35;2.65;;;6.00;99.90;;;;;;5112953;28;20065;-69
2022/01/09 10:08:15;;;;;;;11.88;2.38;;;6.00;99.90;;;;;;5115180;28;20414;-68
2022/01/09 10:10:41;;;;;;;11.98;2.47;;;5.90;99.90;;;;;;5114588;28;20077;-68
2022/01/09 10:13:12;;;;;;;12.70;3.00;;;6.00;99.90;;;;;;5114301;28;20039;-69
2022/01/09 10:15:50;;;;;;;11.75;2.45;;;6.00;99.90;;;;;;5108107;28;20040;-66
2022/01/09 10:18:44;;;;;;;15.75;4.03;;;5.90;99.90;;;;;;5093152;28;20043;-66
2022/01/09 10:21:12;;;;;;;10.52;2.47;;;5.90;99.90;;;;;;5093960;28;20181;-66
2022/01/09 10:24:01;;;;;;;18.25;2.38;;;5.90;99.90;;;;;;5094247;28;20051;-66
2022/01/09 10:26:28;;;;;;;16.15;2.17;;;6.00;99.90;;;;;;5093501;28;20043;-67
2022/01/09 10:28:55;;;;;;;14.93;3.67;;;5.90;99.90;;;;;;5094166;28;20047;-67
2022/01/09 10:31:21;;;;;;;11.07;2.40;;;5.90;99.90;;;;;;5093688;28;20185;-66
2022/01/09 10:34:07;;;;;;;20.42;3.40;;;5.90;99.90;;;;;;5094038;28;20036;-67
2022/01/09 10:36:38;;;;;;;11.80;2.28;;;5.90;99.90;;;;;;5093333;28;20036;-67
2022/01/09 10:39:06;;;;;;;15.45;3.83;;;6.00;99.90;;;;;;5093580;28;20039;-66
2022/01/09 10:42:03;;;;;;;9.60;2.80;;;5.90;99.90;;;;;;5094048;28;20040;-66
2022/01/09 10:44:35;;;;;;;10.02;2.15;;;5.90;99.90;;;;;;5096260;28;20047;-67
2022/01/09 10:47:12;;;;;;;14.02;3.30;;;6.00;99.90;;;;;;5107266;28;20039;-66
2022/01/09 10:49:39;;;;;;;15.07;3.05;;;6.00;99.90;;;;;;5113322;28;20115;-66
2022/01/09 10:52:25;;;;;;;19.80;3.28;;;5.90;99.90;;;;;;5106284;28;20043;-67
2022/01/09 10:54:52;;;;;;;10.93;2.88;;;6.00;99.90;;;;;;5113671;28;20054;-66
2022/01/09 10:57:26;;;;;;;12.57;2.33;;;6.00;99.90;;;;;;5113413;28;20103;-66
2022/01/09 10:59:52;;;;;;;11.68;2.83;;;6.10;99.90;;;;;;5113588;28;20035;-67
2022/01/09 11:02:19;;;;;;;11.20;2.30;;;6.10;99.90;;;;;;5113943;28;20110;-67
2022/01/09 11:04:47;;;;;;;14.38;3.10;;;6.10;99.90;;;;;;5113638;28;20036;-67
2022/01/09 11:07:13;;;;;;;14.50;3.05;;;6.20;99.90;;;;;;5113278;28;20360;-67
2022/01/09 11:09:43;;;;;;;7.20;1.90;;;6.10;99.90;;;;;;5113632;28;20038;-67
2022/01/09 11:12:10;;;;;;;17.67;3.63;;;6.10;99.90;;;;;;5113761;28;20106;-67
2022/01/09 11:14:40;;;;;;;16.70;2.70;;;6.10;99.90;;;;;;5113785;28;20027;-66
2022/01/09 11:17:08;;;;;;;14.45;2.17;;;6.20;99.90;;;;;;5113096;28;20110;-67
2022/01/09 11:19:34;;;;;;;12.30;3.10;;;6.10;99.90;;;;;;5117721;28;20048;-67
2022/01/09 11:22:03;;;;;;;10.90;2.22;;;6.10;99.90;;;;;;5118331;28;20035;-67
2022/01/09 11:24:35;;;;;;;12.50;2.10;;;6.10;99.90;;;;;;5117964;28;20429;-66
2022/01/09 11:27:24;;;;;;;12.77;2.35;;;6.10;99.90;;;;;;5115652;28;20044;-66
2022/01/09 11:30:05;;;;;;;17.02;2.70;;;6.10;99.90;;;;;;5107246;28;20078;-67
2022/01/09 11:32:40;;;;;;;10.40;2.42;;;6.20;99.90;;;;;;5117712;28;20051;-66
2022/01/09 11:35:12;;;;;;;7.80;2.03;;;6.20;99.90;;;;;;5118000;27;20039;-66
2022/01/09 11:37:40;;;;;;;12.75;2.83;;;6.20;99.90;;;;;;5112915;28;20059;-66
2022/01/09 11:40:27;;;;;;;9.30;2.03;;;6.20;99.90;;;;;;5107355;28;20461;-66
2022/01/09 11:43:05;;;;;;;8.27;2.03;;;6.20;99.90;;;;;;5116898;28;20496;-67
2022/01/09 11:45:55;;;;;;;9.77;1.88;;;6.20;99.90;;;;;;5116732;28;20054;-66
2022/01/09 11:48:42;;;;;;;11.48;2.30;;;6.20;99.90;;;;;;5115784;28;20395;-67
2022/01/09 11:51:09;;;;;;;15.07;2.80;;;6.30;99.90;;;;;;5115937;28;20061;-67
2022/01/09 11:53:57;;;;;;;9.95;2.20;;;6.30;99.90;;;;;;5115882;28;20055;-66
2022/01/09 11:56:41;;;;;;;9.77;2.05;;;6.20;99.90;;;;;;5116342;28;20039;-66
2022/01/09 11:59:29;;;;;;;15.15;2.13;;;6.30;99.90;;;;;;5117006;28;20058;-67
2022/01/09 12:02:04;;;;;;;10.70;2.63;;;6.30;99.90;;;;;;5110897;28;20089;-67
2022/01/09 12:04:35;;;;;;;11.52;2.67;;;6.40;99.90;;;;;;5103277;28;20499;-67
2022/01/09 12:07:12;;;;;;;13.02;2.65;;;6.40;99.90;;;;;;5094549;28;20511;-67
2022/01/09 12:09:45;;;;;;;6.03;2.30;;;6.50;99.90;;;;;;5096673;28;20038;-67
2022/01/09 12:12:14;;;;;;;12.48;3.22;;;6.50;99.90;;;;;;5096463;28;20119;-66
2022/01/09 12:14:45;;;;;;;12.40;2.90;;;6.50;99.90;;;;;;5094869;28;20044;-66
2022/01/09 12:17:28;;;;;;;14.73;2.92;;;6.60;99.90;;;;;;5095746;28;20052;-67
2022/01/09 12:20:14;;;;;;;14.18;4.43;;;6.60;99.90;;;;;;5094703;28;20124;-67
2022/01/09 12:22:45;;;;;;;9.77;2.70;;;6.70;99.90;;;;;;5094728;28;20048;-67
2022/01/09 12:25:26;;;;;;;15.77;3.10;;;6.70;99.90;;;;;;5079336;28;20048;-67
2022/01/09 12:28:02;;;;;;;12.38;3.33;;;6.80;99.90;;;;;;5102944;28;20039;-67
2022/01/09 12:30:44;;;;;;;17.85;3.10;;;6.80;99.90;;;;;;5105461;28;20036;-67
2022/01/09 12:33:19;;;;;;;10.93;2.70;;;6.90;99.90;;;;;;5112391;28;20069;-67
2022/01/09 12:35:59;;;;;;;9.25;2.10;;;7.00;99.90;;;;;;5116165;28;20089;-67
2022/01/09 12:38:27;;;;;;;8.20;2.70;;;7.00;99.90;;;;;;5115946;28;20043;-67
2022/01/09 12:41:15;;;;;;;12.80;3.00;;;7.00;99.90;;;;;;5114094;28;20472;-67
2022/01/09 12:43:42;;;;;;;7.85;2.17;;;7.10;99.90;;;;;;5095570;28;20101;-67
2022/01/09 12:46:19;;;;;;;7.70;2.67;;;7.10;99.90;;;;;;5094450;28;20392;-67
2022/01/09 12:48:53;;;;;;;12.30;2.30;;;7.10;99.90;;;;;;5094521;28;20040;-67
2022/01/09 12:51:20;;;;;;;10.05;2.22;;;7.10;99.90;;;;;;5095814;28;20042;-67